Hanseatic Scout — V2BM2 — position and weather

sailwx.info

Track history (hours):
 
Tides and Currents Weather Stations Pressure Air Temp Water Temp Dewpoint Dewpoint Depression Visibility Wind Speed Wind Dir Waves Ship Positions

Hanseatic Scout

Last reported at 2017-Feb-18 11:33 UTC. Time now 2017-Feb-19 16:49 UTC.
Position N 35°58' W 005°53'.

Length 89 m; draft 3.6 m.

Type: Ship. MMSI: 304867000.

Date/timePositionNaut miles runAvg speedWind from/ knotsBaromVisibWave heightAir tempDewpointWater temp
2017-Feb-18 11:33N 35°58' W 005°53'1110.2
2017-Feb-18 10:30N 35°58' W 005°39'9 9.7
2017-Feb-18 09:33N 35°60' W 005°28'8 8.4
2017-Feb-18 08:33N 35°56' W 005°19'3 2.5
2017-Feb-18 07:31N 35°54' W 005°18'0 0.0
2017-Feb-18 06:31N 35°54' W 005°18'0 0.0
2017-Feb-18 05:33N 35°54' W 005°18'4 4.2
2017-Feb-18 04:33N 35°56' W 005°14'8 8.2
2017-Feb-18 03:33N 35°58' W 005°04'208 9.8
2017-Feb-17 06:19N 37°14' W 001°04'911.7
2017-Feb-17 05:32N 37°20' W 000°55'1212.0
2017-Feb-17 04:33N 37°27' W 000°44'1212.2
2017-Feb-17 03:33N 37°36' W 000°32'12210.0
2017-Feb-16 15:25N 39°36' W 000°10'1 0.0
2017-Feb-15 17:32N 39°37' W 000°10'0 0.0
2017-Feb-15 16:29N 39°37' W 000°10'0 0.0
2017-Feb-15 15:26N 39°37' W 000°10'0 0.0
2017-Feb-15 14:32N 39°37' W 000°10'0 0.0
2017-Feb-15 12:32N 39°37' W 000°10'125 7.6
2017-Feb-14 20:08N 37°33' W 000°31'5 8.4
2017-Feb-14 19:32N 37°30' W 000°36'8 8.5
2017-Feb-14 18:33N 37°24' W 000°44'223 9.5
2017-Feb-13 19:05N 36°00' W 005°01'612.0
2017-Feb-13 18:33N 35°59' W 005°09'1312.7
2017-Feb-13 17:33N 35°57' W 005°24'1111.2
2017-Feb-13 16:33N 35°55' W 005°38'9 9.4
2017-Feb-13 15:33N 35°55' W 005°50'272 8.0
2017-Feb-12 05:32N 38°54' W 010°07'9 9.6
2017-Feb-12 04:33N 39°04' W 010°07'  
2017-Feb-08 15:32N 49°47' W 003°31'9 8.7
2017-Feb-08 14:33N 49°51' W 003°20'10 9.7
2017-Feb-08 13:33N 49°56' W 003°07'1110.8
2017-Feb-08 12:33N 50°00' W 002°52'  
Track history (hours):
 
Tides and Currents Weather Stations Pressure Air Temp Water Temp Dewpoint Dewpoint Depression Visibility Wind Speed Wind Dir Waves Ship Positions

Hanseatic Scout

Last reported at 2017-Feb-18 11:33 UTC. Time now 2017-Feb-19 16:49 UTC.
Position N 35°58' W 005°53'.

Length 89 m; draft 3.6 m.

Type: Ship. MMSI: 304867000.

Date/timePositionNaut miles runAvg speedWind from/ knotsBaromVisibWave heightAir tempDewpointWater temp
2017-Feb-18 11:33N 35°58' W 005°53'1110.2
2017-Feb-18 10:30N 35°58' W 005°39'9 9.7
2017-Feb-18 09:33N 35°60' W 005°28'8 8.4
2017-Feb-18 08:33N 35°56' W 005°19'3 2.5
2017-Feb-18 07:31N 35°54' W 005°18'0 0.0
2017-Feb-18 06:31N 35°54' W 005°18'0 0.0
2017-Feb-18 05:33N 35°54' W 005°18'4 4.2
2017-Feb-18 04:33N 35°56' W 005°14'8 8.2
2017-Feb-18 03:33N 35°58' W 005°04'208 9.8
2017-Feb-17 06:19N 37°14' W 001°04'911.7
2017-Feb-17 05:32N 37°20' W 000°55'1212.0
2017-Feb-17 04:33N 37°27' W 000°44'1212.2
2017-Feb-17 03:33N 37°36' W 000°32'12210.0
2017-Feb-16 15:25N 39°36' W 000°10'1 0.0
2017-Feb-15 17:32N 39°37' W 000°10'0 0.0
2017-Feb-15 16:29N 39°37' W 000°10'0 0.0
2017-Feb-15 15:26N 39°37' W 000°10'0 0.0
2017-Feb-15 14:32N 39°37' W 000°10'0 0.0
2017-Feb-15 12:32N 39°37' W 000°10'125 7.6
2017-Feb-14 20:08N 37°33' W 000°31'5 8.4
2017-Feb-14 19:32N 37°30' W 000°36'8 8.5
2017-Feb-14 18:33N 37°24' W 000°44'223 9.5
2017-Feb-13 19:05N 36°00' W 005°01'612.0
2017-Feb-13 18:33N 35°59' W 005°09'1312.7
2017-Feb-13 17:33N 35°57' W 005°24'1111.2
2017-Feb-13 16:33N 35°55' W 005°38'9 9.4
2017-Feb-13 15:33N 35°55' W 005°50'272 8.0
2017-Feb-12 05:32N 38°54' W 010°07'9 9.6
2017-Feb-12 04:33N 39°04' W 010°07'  
2017-Feb-08 15:32N 49°47' W 003°31'9 8.7
2017-Feb-08 14:33N 49°51' W 003°20'10 9.7
2017-Feb-08 13:33N 49°56' W 003°07'1110.8
2017-Feb-08 12:33N 50°00' W 002°52'  

Dump ship's entire track history